Latest Weather Observations for Bickley

IDW60901

Issued at 6:41 am WST Thursday 26 May 2016 (issued every 10 minutes, with the page automatically refreshed every 10 minutes)

About weather observations | Map of Perth area stations | Latest observations for Perth area | Other Formats
Station Details ID: 009240 Name: BICKLEY Lat: -32.01 Lon: 116.14 Height: 384.0 m
Data from the previous 72 hours. | See also: Recent months at Bickley
Date/Time
WST
Tmp

°C
App
Tmp
°C
Dew
Point
°C
Rel
Hum
%
Delta-T

°C
Wind Press
QNH
hPa
Press
MSL
hPa
Rain
since
9 am
mm
Dir
 
Spd
km/h
Gust
km/h
Spd
kts
Gust
kts
26/06:30am 11.9 - - - - W 20 28 11 15 - - 4.0
26/06:00am 11.8 - - - - W 20 32 11 17 - - 4.0
26/05:30am 11.7 - - - - W 20 32 11 17 - - 4.0
26/05:00am 11.6 - - - - W 20 32 11 17 - - 4.0
26/04:30am 11.5 - - - - W 19 28 10 15 - - 4.0
26/04:00am 11.6 - - - - W 19 28 10 15 - - 4.0
26/03:30am 11.4 - - - - WNW 15 22 8 12 - - 4.0
26/03:00am 11.5 - - - - WNW 15 20 8 11 - - 3.8
26/02:30am 11.3 - - - - WNW 15 22 8 12 - - 3.8
26/02:00am 11.2 - - - - WNW 17 26 9 14 - - 3.4
26/01:30am 11.1 - - - - WNW 13 20 7 11 - - 3.4
26/01:00am 11.2 - - - - NW 17 28 9 15 - - 3.2
26/12:30am 11.2 - - - - NW 11 20 6 11 - - 0.6
26/12:00am 11.0 - - - - NW 11 20 6 11 - - 0.2
 
Date/Time
WST
Tmp

°C
App
Tmp
°C
Dew
Point
°C
Rel
Hum
%
Delta-T

°C
Wind Press
QNH
hPa
Press
MSL
hPa
Rain
since
9 am
mm
Dir
 
Spd
km/h
Gust
km/h
Spd
kts
Gust
kts
25/11:30pm 10.9 - - - - NNW 11 20 6 11 - - 0.2
25/11:00pm 10.9 - - - - NW 13 20 7 11 - - 0.2
25/10:30pm 11.2 - - - - NW 15 24 8 13 - - 0.2
25/10:00pm 11.2 - - - - NW 11 17 6 9 - - 0.2
25/09:30pm 11.2 - - - - NW 11 15 6 8 - - 0.2
25/09:00pm 11.1 - - - - NW 13 22 7 12 - - 0.2
25/08:30pm 10.7 - - - - NW 13 22 7 12 - - 0.2
25/08:00pm 10.8 - - - - NW 13 17 7 9 - - 0.2
25/07:30pm 11.2 - - - - WNW 13 24 7 13 - - 0.2
25/07:00pm 11.8 - - - - NW 15 24 8 13 - - 0.2
25/06:30pm 12.5 - - - - NW 11 20 6 11 - - 0.0
25/06:00pm 12.8 7.4 -13.2 15 8.2 NW 11 20 6 11 - - 0.0
25/05:30pm 12.8 10.6 9.4 80 1.8 W 11 22 6 12 - - 0.0
25/05:00pm 13.0 9.9 8.9 76 2.1 WNW 15 24 8 13 - - 0.0
25/04:30pm 14.7 11.2 8.6 67 3.1 WNW 17 30 9 16 - - 0.0
25/04:00pm 15.2 11.6 8.2 63 3.6 WNW 17 33 9 18 - - 0.0
25/03:30pm 14.8 10.9 8.5 66 3.2 W 19 32 10 17 - - 0.0
25/03:00pm 15.6 12.4 8.6 63 3.6 W 15 28 8 15 - - 0.0
25/02:30pm 15.6 11.9 7.9 60 3.9 WNW 17 30 9 16 - - 0.0
25/02:00pm 14.3 9.6 7.6 64 3.4 W 22 35 12 19 - - 0.0
25/01:30pm 15.5 11.2 7.8 60 3.9 WNW 20 33 11 18 - - 0.0
25/01:00pm 14.9 10.6 7.9 63 3.6 WNW 20 35 11 19 - - 0.0
25/12:30pm 14.0 10.8 8.4 69 2.9 WNW 15 22 8 12 - - 0.0
25/12:00pm 13.8 8.5 -0.3 38 6.0 WNW 17 28 9 15 - - 0.0
25/11:30am 14.3 7.6 -34.4 2 10.2 WNW 15 24 8 13 - - 0.0
25/11:00am 14.0 - - - - NW 15 28 8 15 - - 0.0
25/10:30am 13.7 - - - - NW 13 20 7 11 - - 0.0
25/10:00am 12.6 - - - - NNW 11 15 6 8 - - 0.0
25/09:30am 12.3 - - - - NNW 9 20 5 11 - - 0.0
25/09:00am 11.5 - - - - NW 9 15 5 8 - - 0.4
25/08:30am 10.2 - - - - NNW 11 17 6 9 - - 0.4
25/08:00am 9.5 - - - - NNW 9 17 5 9 - - 0.4
25/07:30am 8.2 - - - - NNW 9 11 5 6 - - 0.4
25/07:00am 8.6 - - - - W 9 11 5 6 - - 0.4
25/06:30am 8.4 - - - - NW 9 11 5 6 - - 0.4
25/06:00am 8.6 - - - - NW 7 11 4 6 - - 0.4
25/05:30am 9.4 - - - - NW 9 11 5 6 - - 0.4
25/05:00am 9.5 - - - - NW 11 15 6 8 - - 0.4
25/04:30am 9.1 - - - - NW 9 13 5 7 - - 0.4
25/04:00am 9.6 - - - - WNW 11 15 6 8 - - 0.4
25/03:30am 9.5 - - - - NW 9 11 5 6 - - 0.4
25/03:00am 9.8 - - - - NNW 11 15 6 8 - - 0.4
25/02:30am 8.8 - - - - WNW 7 9 4 5 - - 0.4
25/02:00am 9.4 - - - - W 9 17 5 9 - - 0.4
25/01:30am 9.5 - - - - NW 7 9 4 5 - - 0.4
25/01:00am 10.1 - - - - W 11 17 6 9 - - 0.4
25/12:30am 10.3 - - - - W 13 33 7 18 - - 0.2
25/12:00am 9.5 - - - - WNW 6 7 3 4 - - 0.0
 
Date/Time
WST
Tmp

°C
App
Tmp
°C
Dew
Point
°C
Rel
Hum
%
Delta-T

°C
Wind Press
QNH
hPa
Press
MSL
hPa
Rain
since
9 am
mm
Dir
 
Spd
km/h
Gust
km/h
Spd
kts
Gust
kts
24/11:30pm 9.8 - - - - NW 6 7 3 4 - - 0.0
24/11:00pm 10.3 - - - - NNW 6 9 3 5 - - 0.0
24/10:30pm 10.0 - - - - SSW 6 7 3 4 - - 0.0
24/10:00pm 9.4 - - - - SW 7 11 4 6 - - 0.0
24/09:30pm 9.3 - - - - W 2 11 1 6 - - 0.0
24/09:00pm 9.8 - - - - CALM 0 0 0 0 - - 0.0
24/08:30pm 10.6 - - - - SW 6 11 3 6 - - 0.0
24/08:00pm 10.8 - - - - SW 9 13 5 7 - - 0.0
24/07:30pm 10.9 - - - - SW 9 13 5 7 - - 0.0
24/07:00pm 10.2 - - - - SW 11 13 6 7 - - 0.0
24/06:30pm 10.6 - - - - W 11 15 6 8 - - 0.0
24/06:00pm 11.3 - - - - WSW 9 22 5 12 - - 0.0
24/05:30pm 12.5 6.5 -42.3 1 9.6 W 11 17 6 9 - - 0.0
24/05:00pm 12.9 10.7 8.0 72 2.5 W 9 13 5 7 - - 0.0
24/04:30pm 13.2 10.8 8.5 73 2.4 WSW 11 20 6 11 - - 0.0
24/04:00pm 14.0 10.4 8.2 68 3.0 W 17 30 9 16 - - 0.0
24/03:30pm 13.6 10.3 8.0 69 2.8 W 15 24 8 13 - - 0.0
24/03:00pm 12.9 9.5 7.8 71 2.6 W 15 24 8 13 - - 0.0
24/02:30pm 14.2 10.2 6.6 60 3.7 WSW 17 32 9 17 - - 0.0
24/02:00pm 14.6 10.1 5.9 56 4.2 WSW 19 33 10 18 - - 0.0
24/01:30pm 14.2 9.3 5.0 54 4.4 WSW 20 41 11 22 - - 0.0
24/01:00pm 14.3 9.2 2.9 46 5.2 WSW 19 32 10 17 - - 0.0
24/12:30pm 15.1 7.1 -17.5 9 9.7 W 24 39 13 21 - - 0.0
24/12:00pm 15.5 7.0 -40.4 1 10.8 W 24 43 13 23 - - 0.0
24/11:30am 15.4 - - - - W 30 50 16 27 - - 0.0
24/11:00am 15.4 - - - - W 28 54 15 29 - - 0.0
24/10:30am 14.4 - - - - W 28 50 15 27 - - 0.0
24/10:08am 14.6 - - - - W 28 46 15 25 - - 0.0
24/10:00am 14.4 - - - - W 30 46 16 25 - - 0.0
24/09:37am 13.7 - - - - W 28 46 15 25 - - 0.0
24/09:30am 13.3 - - - - W 24 41 13 22 - - 0.0
24/09:14am 13.2 - - - - WSW 28 48 15 26 - - 0.0
24/09:00am 13.4 - - - - W 26 41 14 22 - - 42.0
24/08:30am 13.0 - - - - W 24 35 13 19 - - 42.0
24/08:00am 13.0 - - - - WSW 33 59 18 32 - - 41.8
24/07:38am 13.5 - - - - WSW 28 46 15 25 - - 41.4
24/07:30am 13.5 - - - - WSW 26 48 14 26 - - 41.4
24/07:00am 14.0 - - - - WSW 28 57 15 31 - - 40.8
24/06:50am 14.2 - - - - WSW 28 50 15 27 - - 40.4
24/06:30am 14.6 - - - - W 24 43 13 23 - - 38.6
24/06:02am 15.1 - - - - WSW 28 48 15 26 - - 35.6
24/06:00am 15.2 - - - - WSW 26 48 14 26 - - 35.6
24/05:30am 15.3 - - - - NNW 30 54 16 29 - - 28.2
24/05:00am 15.0 - - - - NNW 33 59 18 32 - - 20.2
24/04:30am 14.7 - - - - NNW 30 65 16 35 - - 17.8
24/04:00am 14.5 - - - - NNW 35 69 19 37 - - 16.0
24/03:30am 14.5 - - - - NNW 37 72 20 39 - - 11.2
24/03:00am 14.1 - - - - NNW 35 59 19 32 - - 8.0
24/02:30am 14.0 - - - - NNW 32 57 17 31 - - 6.0
24/02:14am 13.9 - - - - NNW 35 67 19 36 - - 4.2
24/02:00am 13.9 - - - - NNW 30 48 16 26 - - 1.8
24/01:30am 13.6 - - - - NNW 30 54 16 29 - - 1.8
24/01:01am 13.8 - - - - NNW 28 46 15 25 - - 1.4
24/01:00am 13.8 - - - - NNW 26 46 14 25 - - 1.4
24/12:30am 14.1 - - - - NNW 32 54 17 29 - - 0.8
24/12:00am 14.8 - - - - NNW 30 54 16 29 - - 0.2
 
Date/Time
WST
Tmp

°C
App
Tmp
°C
Dew
Point
°C
Rel
Hum
%
Delta-T

°C
Wind Press
QNH
hPa
Press
MSL
hPa
Rain
since
9 am
mm
Dir
 
Spd
km/h
Gust
km/h
Spd
kts
Gust
kts
23/11:30pm 15.0 - - - - NNW 28 48 15 26 - - 0.0
23/11:00pm 15.5 - - - - NNW 32 57 17 31 - - 0.0
23/10:30pm 15.2 - - - - NNW 28 54 15 29 - - 0.0
23/10:25pm 15.2 - - - - NNW 28 54 15 29 - - 0.0
23/10:00pm 14.5 - - - - NNW 22 35 12 19 - - 0.0
23/09:30pm 13.7 - - - - N 22 33 12 18 - - 0.0
23/09:00pm 14.4 - - - - N 19 33 10 18 - - 0.0
23/08:30pm 14.4 - - - - N 19 32 10 17 - - 0.0
23/08:00pm 13.9 - - - - N 19 30 10 16 - - 0.0
23/07:30pm 13.3 - - - - N 19 28 10 15 - - 0.0
23/07:00pm 13.1 - - - - N 17 30 9 16 - - 0.0
23/06:30pm 14.1 - - - - N 19 32 10 17 - - 0.0
23/06:00pm 14.2 10.4 7.7 65 3.3 N 17 30 9 16 - - 0.0
23/05:30pm 14.5 10.6 7.3 62 3.6 N 17 32 9 17 - - 0.0
23/05:00pm 14.9 11.0 7.2 60 3.9 N 17 30 9 16 - - 0.0
23/04:30pm 14.9 10.5 7.2 60 3.9 N 20 35 11 19 - - 0.0
23/04:00pm 16.1 11.8 7.1 55 4.5 N 19 33 10 18 - - 0.0
23/03:30pm 16.7 11.3 6.5 51 5.1 N 24 41 13 22 - - 0.0
23/03:00pm 16.9 12.7 7.5 54 4.8 N 19 35 10 19 - - 0.0
23/02:30pm 16.9 13.3 8.3 57 4.5 NNE 17 33 9 18 - - 0.0
23/02:00pm 16.7 11.7 6.5 51 5.1 N 22 35 12 19 - - 0.0
23/01:30pm 16.9 12.6 7.8 55 4.7 N 20 35 11 19 - - 0.0
23/01:00pm 16.5 12.6 8.5 59 4.2 NNE 19 30 10 16 - - 0.0
23/12:30pm 16.5 12.0 6.3 51 5.1 NNE 19 33 10 18 - - 0.0
23/12:00pm 15.8 9.0 -9.9 16 9.0 N 20 41 11 22 - - 0.0
23/11:30am 15.8 - - - - NNE 15 33 8 18 - - 0.0
23/11:00am 15.0 - - - - N 17 35 9 19 - - 0.0
23/10:30am 14.3 - - - - N 15 32 8 17 - - 0.0
23/10:00am 13.2 - - - - NNE 15 32 8 17 - - 0.0
23/09:30am 11.6 - - - - N 13 26 7 14 - - 0.0
23/09:00am 10.8 - - - - N 15 26 8 14 - - 7.6
23/08:30am 10.5 - - - - NNE 15 20 8 11 - - 7.6
23/08:00am 10.1 - - - - N 15 22 8 12 - - 7.6
23/07:30am 9.8 - - - - NNE 11 15 6 8 - - 7.6
23/07:00am 9.8 - - - - N 13 17 7 9 - - 7.6

Latest Capital City Observations: Canberra | Sydney | Melbourne | Brisbane | Adelaide | Perth | Hobart | Darwin

Other Formats:

Comma delimited format used in spreadsheet applications
http://www.bom.gov.au/fwo/IDW60901/IDW60901.95610.axf

JavaScript Object Notation format (JSON) in row-major order
http://www.bom.gov.au/fwo/IDW60901/IDW60901.95610.json